sensor_id;sensor_type;location;lat;lon;timestamp;pressure;altitude;pressure_sealevel;temperature;humidity
41312;BME280;27061;41.648;24.568;2023-02-11T00:00:40;86842.38;;;-5.24;47.94
41312;BME280;27061;41.648;24.568;2023-02-11T00:03:07;86836.38;;;-5.23;47.96
41312;BME280;27061;41.648;24.568;2023-02-11T00:05:34;86849.88;;;-5.23;48.61
41312;BME280;27061;41.648;24.568;2023-02-11T00:08:01;86852.34;;;-5.27;48.66
41312;BME280;27061;41.648;24.568;2023-02-11T00:10:28;86855.03;;;-5.27;48.36
41312;BME280;27061;41.648;24.568;2023-02-11T00:12:55;86853.75;;;-5.26;48.88
41312;BME280;27061;41.648;24.568;2023-02-11T00:15:22;86850.22;;;-5.28;49.38
41312;BME280;27061;41.648;24.568;2023-02-11T00:17:56;86851.03;;;-5.26;48.97
41312;BME280;27061;41.648;24.568;2023-02-11T00:20:23;86851.63;;;-5.27;48.35
41312;BME280;27061;41.648;24.568;2023-02-11T00:22:50;86852.34;;;-5.27;49.52
41312;BME280;27061;41.648;24.568;2023-02-11T00:25:20;86844.81;;;-5.28;49.13
41312;BME280;27061;41.648;24.568;2023-02-11T00:27:47;86847.53;;;-5.28;49.13
41312;BME280;27061;41.648;24.568;2023-02-11T00:30:14;86849.75;;;-5.25;48.57
41312;BME280;27061;41.648;24.568;2023-02-11T00:32:45;86850.34;;;-5.26;48.68
41312;BME280;27061;41.648;24.568;2023-02-11T00:35:12;86848.22;;;-5.28;49.35
41312;BME280;27061;41.648;24.568;2023-02-11T00:37:39;86852.94;;;-5.28;49.89
41312;BME280;27061;41.648;24.568;2023-02-11T00:40:07;86848.59;;;-5.33;49.81
41312;BME280;27061;41.648;24.568;2023-02-11T00:42:34;86842.50;;;-5.34;50.16
41312;BME280;27061;41.648;24.568;2023-02-11T00:45:07;86849.19;;;-5.35;49.74
41312;BME280;27061;41.648;24.568;2023-02-11T00:47:35;86842.25;;;-5.38;49.35
41312;BME280;27061;41.648;24.568;2023-02-11T00:50:02;86844.84;;;-5.40;49.27
41312;BME280;27061;41.648;24.568;2023-02-11T00:52:31;86836.75;;;-5.40;50.10
41312;BME280;27061;41.648;24.568;2023-02-11T00:54:58;86842.25;;;-5.38;50.62
41312;BME280;27061;41.648;24.568;2023-02-11T00:57:25;86839.56;;;-5.38;50.14
41312;BME280;27061;41.648;24.568;2023-02-11T00:59:52;86841.34;;;-5.42;49.20
41312;BME280;27061;41.648;24.568;2023-02-11T01:02:18;86841.81;;;-5.46;49.30
41312;BME280;27061;41.648;24.568;2023-02-11T01:04:45;86831.25;;;-5.42;49.13
41312;BME280;27061;41.648;24.568;2023-02-11T01:07:12;86833.00;;;-5.46;48.88
41312;BME280;27061;41.648;24.568;2023-02-11T01:09:39;86839.13;;;-5.58;47.08
41312;BME280;27061;41.648;24.568;2023-02-11T01:12:13;86824.91;;;-5.58;48.65
41312;BME280;27061;41.648;24.568;2023-02-11T01:14:40;86827.75;;;-5.56;49.11
41312;BME280;27061;41.648;24.568;2023-02-11T01:17:07;86827.84;;;-5.54;49.62
41312;BME280;27061;41.648;24.568;2023-02-11T01:19:35;86831.47;;;-5.61;49.48
41312;BME280;27061;41.648;24.568;2023-02-11T01:22:02;86825.50;;;-5.60;49.23
41312;BME280;27061;41.648;24.568;2023-02-11T01:24:29;86835.50;;;-5.62;50.01
41312;BME280;27061;41.648;24.568;2023-02-11T01:26:56;86826.78;;;-5.61;50.27
41312;BME280;27061;41.648;24.568;2023-02-11T01:29:23;86834.09;;;-5.63;50.50
41312;BME280;27061;41.648;24.568;2023-02-11T01:31:53;86828.19;;;-5.60;50.52
41312;BME280;27061;41.648;24.568;2023-02-11T01:34:19;86828.31;;;-5.58;50.38
41312;BME280;27061;41.648;24.568;2023-02-11T01:36:48;86833.59;;;-5.60;50.48
41312;BME280;27061;41.648;24.568;2023-02-11T01:39:15;86820.03;;;-5.62;49.32
41312;BME280;27061;41.648;24.568;2023-02-11T01:41:44;86815.28;;;-5.61;50.07
41312;BME280;27061;41.648;24.568;2023-02-11T01:47:08;86815.41;;;-5.59;47.92
41312;BME280;27061;41.648;24.568;2023-02-11T01:49:36;86813.69;;;-5.66;48.86
41312;BME280;27061;41.648;24.568;2023-02-11T01:54:53;86820.94;;;-5.69;50.27
41312;BME280;27061;41.648;24.568;2023-02-11T01:57:41;86816.97;;;-5.68;50.42
41312;BME280;27061;41.648;24.568;2023-02-11T02:00:16;86814.84;;;-5.69;49.45
41312;BME280;27061;41.648;24.568;2023-02-11T02:10:39;86800.53;;;-5.72;47.73
41312;BME280;27061;41.648;24.568;2023-02-11T02:13:07;86798.44;;;-5.73;46.96
41312;BME280;27061;41.648;24.568;2023-02-11T02:15:37;86796.91;;;-5.76;47.51
41312;BME280;27061;41.648;24.568;2023-02-11T02:18:14;86799.38;;;-5.69;45.51
41312;BME280;27061;41.648;24.568;2023-02-11T02:28:49;86800.81;;;-5.91;42.76
41312;BME280;27061;41.648;24.568;2023-02-11T02:31:26;86808.53;;;-5.85;40.59
41312;BME280;27061;41.648;24.568;2023-02-11T02:33:59;86808.09;;;-5.94;43.07
41312;BME280;27061;41.648;24.568;2023-02-11T02:36:33;86801.03;;;-5.87;39.56
41312;BME280;27061;41.648;24.568;2023-02-11T02:39:05;86808.31;;;-5.89;42.05
41312;BME280;27061;41.648;24.568;2023-02-11T02:41:34;86809.94;;;-5.84;42.86
41312;BME280;27061;41.648;24.568;2023-02-11T02:44:01;86809.94;;;-5.84;43.42
41312;BME280;27061;41.648;24.568;2023-02-11T02:46:30;86812.63;;;-5.84;44.19
41312;BME280;27061;41.648;24.568;2023-02-11T02:48:58;86810.28;;;-5.78;41.66
41312;BME280;27061;41.648;24.568;2023-02-11T03:04:08;86815.34;;;-5.84;43.39
41312;BME280;27061;41.648;24.568;2023-02-11T03:09:08;86817.47;;;-5.95;42.74
41312;BME280;27061;41.648;24.568;2023-02-11T03:11:38;86799.41;;;-6.04;43.03
41312;BME280;27061;41.648;24.568;2023-02-11T03:14:07;86813.38;;;-5.96;43.28
41312;BME280;27061;41.648;24.568;2023-02-11T03:16:36;86817.91;;;-5.86;42.95
41312;BME280;27061;41.648;24.568;2023-02-11T03:19:07;86809.59;;;-5.91;42.61
41312;BME280;27061;41.648;24.568;2023-02-11T03:21:36;86810.88;;;-5.92;43.13
41312;BME280;27061;41.648;24.568;2023-02-11T03:24:08;86813.72;;;-5.89;42.96
41312;BME280;27061;41.648;24.568;2023-02-11T03:26:43;86816.06;;;-5.96;44.15
41312;BME280;27061;41.648;24.568;2023-02-11T03:29:34;86808.41;;;-5.87;47.18
41312;BME280;27061;41.648;24.568;2023-02-11T03:32:07;86804.09;;;-5.93;47.47
41312;BME280;27061;41.648;24.568;2023-02-11T03:40:14;86798.00;;;-6.05;48.66
41312;BME280;27061;41.648;24.568;2023-02-11T03:42:53;86798.47;;;-6.20;48.03
41312;BME280;27061;41.648;24.568;2023-02-11T03:45:22;86800.56;;;-6.18;49.97
41312;BME280;27061;41.648;24.568;2023-02-11T03:48:00;86805.00;;;-6.23;51.12
41312;BME280;27061;41.648;24.568;2023-02-11T03:50:29;86800.00;;;-6.17;47.63
41312;BME280;27061;41.648;24.568;2023-02-11T03:52:57;86804.09;;;-6.28;46.37
41312;BME280;27061;41.648;24.568;2023-02-11T03:55:26;86798.69;;;-6.28;48.26
41312;BME280;27061;41.648;24.568;2023-02-11T03:57:53;86801.72;;;-6.33;47.90
41312;BME280;27061;41.648;24.568;2023-02-11T04:00:27;86796.47;;;-6.31;48.87
41312;BME280;27061;41.648;24.568;2023-02-11T04:02:54;86795.03;;;-6.32;49.13
41312;BME280;27061;41.648;24.568;2023-02-11T04:05:21;86801.25;;;-6.41;49.92
41312;BME280;27061;41.648;24.568;2023-02-11T04:07:48;86802.91;;;-6.36;49.40
41312;BME280;27061;41.648;24.568;2023-02-11T04:10:15;86803.00;;;-6.34;49.41
41312;BME280;27061;41.648;24.568;2023-02-11T04:12:42;86807.13;;;-6.33;50.36
41312;BME280;27061;41.648;24.568;2023-02-11T04:15:09;86800.56;;;-6.30;50.53
41312;BME280;27061;41.648;24.568;2023-02-11T04:17:36;86795.88;;;-6.30;49.48
41312;BME280;27061;41.648;24.568;2023-02-11T04:20:03;86794.00;;;-6.27;49.67
41312;BME280;27061;41.648;24.568;2023-02-11T04:22:30;86801.97;;;-6.29;49.58
41312;BME280;27061;41.648;24.568;2023-02-11T04:24:57;86805.25;;;-6.31;49.25
41312;BME280;27061;41.648;24.568;2023-02-11T04:27:23;86798.00;;;-6.28;49.15
41312;BME280;27061;41.648;24.568;2023-02-11T04:29:50;86802.09;;;-6.27;49.08
41312;BME280;27061;41.648;24.568;2023-02-11T04:32:17;86804.53;;;-6.31;48.78
41312;BME280;27061;41.648;24.568;2023-02-11T04:34:44;86800.81;;;-6.26;49.33
41312;BME280;27061;41.648;24.568;2023-02-11T04:37:11;86800.09;;;-6.26;49.55
41312;BME280;27061;41.648;24.568;2023-02-11T04:39:38;86798.13;;;-6.26;49.55
41312;BME280;27061;41.648;24.568;2023-02-11T04:42:05;86796.84;;;-6.25;48.92
41312;BME280;27061;41.648;24.568;2023-02-11T04:44:32;86803.38;;;-6.28;48.44
41312;BME280;27061;41.648;24.568;2023-02-11T04:46:59;86807.72;;;-6.23;47.63
41312;BME280;27061;41.648;24.568;2023-02-11T04:49:26;86806.19;;;-6.26;47.65
41312;BME280;27061;41.648;24.568;2023-02-11T04:51:53;86802.22;;;-6.25;48.24
41312;BME280;27061;41.648;24.568;2023-02-11T04:54:20;86789.91;;;-6.28;47.86
41312;BME280;27061;41.648;24.568;2023-02-11T04:56:47;86795.53;;;-6.24;47.06
41312;BME280;27061;41.648;24.568;2023-02-11T04:59:15;86794.22;;;-6.23;47.80
41312;BME280;27061;41.648;24.568;2023-02-11T05:01:42;86791.31;;;-6.27;48.48
41312;BME280;27061;41.648;24.568;2023-02-11T05:04:09;86795.63;;;-6.34;50.39
41312;BME280;27061;41.648;24.568;2023-02-11T05:06:37;86796.13;;;-6.37;49.65
41312;BME280;27061;41.648;24.568;2023-02-11T05:09:03;86789.88;;;-6.51;50.64
41312;BME280;27061;41.648;24.568;2023-02-11T05:11:31;86787.44;;;-6.47;51.32
41312;BME280;27061;41.648;24.568;2023-02-11T05:13:58;86797.72;;;-6.44;51.92
41312;BME280;27061;41.648;24.568;2023-02-11T05:16:25;86789.31;;;-6.38;51.98
41312;BME280;27061;41.648;24.568;2023-02-11T05:18:52;86790.72;;;-6.37;51.43
41312;BME280;27061;41.648;24.568;2023-02-11T05:21:21;86787.66;;;-6.43;51.54
41312;BME280;27061;41.648;24.568;2023-02-11T05:23:48;86791.88;;;-6.40;51.59
41312;BME280;27061;41.648;24.568;2023-02-11T05:26:15;86787.66;;;-6.43;51.61
41312;BME280;27061;41.648;24.568;2023-02-11T05:28:42;86795.16;;;-6.42;49.44
41312;BME280;27061;41.648;24.568;2023-02-11T05:31:12;86793.16;;;-6.41;49.20
41312;BME280;27061;41.648;24.568;2023-02-11T05:33:40;86798.31;;;-6.45;48.83
41312;BME280;27061;41.648;24.568;2023-02-11T05:36:09;86799.25;;;-6.41;49.32
41312;BME280;27061;41.648;24.568;2023-02-11T05:38:36;86808.50;;;-6.44;49.46
41312;BME280;27061;41.648;24.568;2023-02-11T05:41:04;86801.13;;;-6.43;50.29
41312;BME280;27061;41.648;24.568;2023-02-11T05:43:31;86806.63;;;-6.41;50.22
41312;BME280;27061;41.648;24.568;2023-02-11T05:46:00;86801.81;;;-6.43;49.81
41312;BME280;27061;41.648;24.568;2023-02-11T05:48:28;86809.69;;;-6.47;50.07
41312;BME280;27061;41.648;24.568;2023-02-11T05:51:03;86807.78;;;-6.44;50.87
41312;BME280;27061;41.648;24.568;2023-02-11T05:53:30;86801.81;;;-6.43;51.53
41312;BME280;27061;41.648;24.568;2023-02-11T05:55:57;86802.41;;;-6.44;51.83
41312;BME280;27061;41.648;24.568;2023-02-11T05:58:24;86793.03;;;-6.43;52.42
41312;BME280;27061;41.648;24.568;2023-02-11T06:00:51;86801.25;;;-6.41;51.70
41312;BME280;27061;41.648;24.568;2023-02-11T06:03:18;86798.69;;;-6.39;52.95
41312;BME280;27061;41.648;24.568;2023-02-11T06:05:44;86799.16;;;-6.31;52.83
41312;BME280;27061;41.648;24.568;2023-02-11T06:08:11;86792.34;;;-6.32;52.38
41312;BME280;27061;41.648;24.568;2023-02-11T06:10:38;86794.91;;;-6.34;53.23
41312;BME280;27061;41.648;24.568;2023-02-11T06:13:07;86796.34;;;-6.33;53.65
41312;BME280;27061;41.648;24.568;2023-02-11T06:15:34;86800.56;;;-6.30;53.28
41312;BME280;27061;41.648;24.568;2023-02-11T06:18:01;86800.81;;;-6.26;53.25
41312;BME280;27061;41.648;24.568;2023-02-11T06:20:28;86799.41;;;-6.27;53.26
41312;BME280;27061;41.648;24.568;2023-02-11T06:22:55;86796.72;;;-6.27;53.89
41312;BME280;27061;41.648;24.568;2023-02-11T06:25:22;86794.72;;;-6.26;54.83
41312;BME280;27061;41.648;24.568;2023-02-11T06:27:49;86795.88;;;-6.30;55.79
41312;BME280;27061;41.648;24.568;2023-02-11T06:30:16;86798.00;;;-6.28;56.30
41312;BME280;27061;41.648;24.568;2023-02-11T06:32:43;86792.81;;;-6.24;56.61
41312;BME280;27061;41.648;24.568;2023-02-11T06:35:12;86792.50;;;-6.18;56.70
41312;BME280;27061;41.648;24.568;2023-02-11T06:37:39;86791.53;;;-6.11;56.81
41312;BME280;27061;41.648;24.568;2023-02-11T06:40:07;86794.72;;;-6.03;56.53
41312;BME280;27061;41.648;24.568;2023-02-11T06:42:34;86792.63;;;-6.05;57.41
41312;BME280;27061;41.648;24.568;2023-02-11T06:45:01;86796.59;;;-6.06;58.42
41312;BME280;27061;41.648;24.568;2023-02-11T06:47:38;86793.19;;;-6.06;58.99
41312;BME280;27061;41.648;24.568;2023-02-11T06:50:07;86792.84;;;-6.01;59.14
41312;BME280;27061;41.648;24.568;2023-02-11T06:52:34;86784.13;;;-5.87;58.90
41312;BME280;27061;41.648;24.568;2023-02-11T06:55:01;86789.44;;;-5.89;59.87
41312;BME280;27061;41.648;24.568;2023-02-11T06:57:29;86784.38;;;-5.83;60.08
41312;BME280;27061;41.648;24.568;2023-02-11T06:59:56;86788.81;;;-5.76;60.34
41312;BME280;27061;41.648;24.568;2023-02-11T07:02:22;86787.63;;;-5.62;60.07
41312;BME280;27061;41.648;24.568;2023-02-11T07:04:49;86796.09;;;-5.67;61.60
41312;BME280;27061;41.648;24.568;2023-02-11T07:07:18;86788.09;;;-5.54;61.55
41312;BME280;27061;41.648;24.568;2023-02-11T07:09:44;86789.84;;;-5.46;61.11
41312;BME280;27061;41.648;24.568;2023-02-11T07:12:11;86783.13;;;-5.45;62.76
41312;BME280;27061;41.648;24.568;2023-02-11T07:14:38;86786.16;;;-5.39;63.59
41312;BME280;27061;41.648;24.568;2023-02-11T07:17:05;86773.72;;;-5.33;62.23
41312;BME280;27061;41.648;24.568;2023-02-11T07:19:32;86781.41;;;-5.16;62.78
41312;BME280;27061;41.648;24.568;2023-02-11T07:21:59;86789.88;;;-5.09;62.61
41312;BME280;27061;41.648;24.568;2023-02-11T07:24:26;86791.81;;;-4.98;63.24
41312;BME280;27061;41.648;24.568;2023-02-11T07:26:53;86782.91;;;-5.01;63.43
41312;BME280;27061;41.648;24.568;2023-02-11T07:29:20;86778.41;;;-4.96;64.46
41312;BME280;27061;41.648;24.568;2023-02-11T07:31:47;86784.34;;;-4.86;64.06
41312;BME280;27061;41.648;24.568;2023-02-11T07:34:14;86784.81;;;-4.78;65.95
41312;BME280;27061;41.648;24.568;2023-02-11T07:36:41;86791.47;;;-4.67;66.38
41312;BME280;27061;41.648;24.568;2023-02-11T07:39:09;86786.31;;;-4.50;65.33
41312;BME280;27061;41.648;24.568;2023-02-11T07:41:45;86776.75;;;-4.39;64.57
41312;BME280;27061;41.648;24.568;2023-02-11T07:44:15;86781.41;;;-4.14;63.98
41312;BME280;27061;41.648;24.568;2023-02-11T07:46:41;86777.75;;;-3.93;55.65
41312;BME280;27061;41.648;24.568;2023-02-11T07:49:11;86775.25;;;-3.76;55.24
41312;BME280;27061;41.648;24.568;2023-02-11T07:51:38;86765.22;;;-3.59;55.22
41312;BME280;27061;41.648;24.568;2023-02-11T07:54:05;86759.22;;;-3.44;51.84
41312;BME280;27061;41.648;24.568;2023-02-11T07:56:32;86757.69;;;-3.34;51.11
41312;BME280;27061;41.648;24.568;2023-02-11T07:59:00;86765.81;;;-3.20;50.42
41312;BME280;27061;41.648;24.568;2023-02-11T08:01:27;86756.75;;;-3.11;49.95
41312;BME280;27061;41.648;24.568;2023-02-11T08:03:54;86756.25;;;-3.07;54.25
41312;BME280;27061;41.648;24.568;2023-02-11T08:06:22;86757.72;;;-2.90;54.59
41312;BME280;27061;41.648;24.568;2023-02-11T08:08:49;86761.22;;;-2.88;56.78
41312;BME280;27061;41.648;24.568;2023-02-11T08:11:18;86751.28;;;-2.83;57.13
41312;BME280;27061;41.648;24.568;2023-02-11T08:13:46;86760.69;;;-2.71;60.30
41312;BME280;27061;41.648;24.568;2023-02-11T08:16:18;86757.81;;;-2.59;60.75
41312;BME280;27061;41.648;24.568;2023-02-11T08:18:45;86756.28;;;-2.48;58.88
41312;BME280;27061;41.648;24.568;2023-02-11T08:21:12;86753.31;;;-2.39;57.32
41312;BME280;27061;41.648;24.568;2023-02-11T08:23:39;86763.44;;;-2.26;58.47
41312;BME280;27061;41.648;24.568;2023-02-11T08:26:11;86754.69;;;-2.08;56.63
41312;BME280;27061;41.648;24.568;2023-02-11T08:28:39;86759.44;;;-1.93;57.43
41312;BME280;27061;41.648;24.568;2023-02-11T08:31:10;86762.84;;;-1.77;55.92
41312;BME280;27061;41.648;24.568;2023-02-11T08:33:38;86762.69;;;-1.65;54.47
41312;BME280;27061;41.648;24.568;2023-02-11T08:36:10;86764.09;;;-1.49;55.85
41312;BME280;27061;41.648;24.568;2023-02-11T08:38:37;86769.66;;;-1.29;55.75
41312;BME280;27061;41.648;24.568;2023-02-11T08:41:05;86770.34;;;-1.13;54.97
41312;BME280;27061;41.648;24.568;2023-02-11T08:43:32;86748.22;;;-1.05;54.00
41312;BME280;27061;41.648;24.568;2023-02-11T08:46:00;86765.34;;;-0.85;52.95
41312;BME280;27061;41.648;24.568;2023-02-11T08:48:28;86764.59;;;-0.69;53.10
41312;BME280;27061;41.648;24.568;2023-02-11T08:50:55;86741.53;;;-0.68;52.65
41312;BME280;27061;41.648;24.568;2023-02-11T08:53:22;86765.97;;;-0.35;51.67
41312;BME280;27061;41.648;24.568;2023-02-11T08:55:50;86754.22;;;-0.22;50.24
41312;BME280;27061;41.648;24.568;2023-02-11T08:58:18;86761.69;;;-0.05;49.12
41312;BME280;27061;41.648;24.568;2023-02-11T09:00:46;86760.88;;;0.11;48.94
41312;BME280;27061;41.648;24.568;2023-02-11T09:03:13;86755.34;;;0.26;46.05
41312;BME280;27061;41.648;24.568;2023-02-11T09:05:41;86755.78;;;0.39;46.78
41312;BME280;27061;41.648;24.568;2023-02-11T09:08:08;86755.53;;;0.50;44.95
41312;BME280;27061;41.648;24.568;2023-02-11T09:10:35;86751.47;;;0.51;41.65
41312;BME280;27061;41.648;24.568;2023-02-11T09:13:02;86758.69;;;0.62;44.03
41312;BME280;27061;41.648;24.568;2023-02-11T09:15:29;86755.63;;;0.72;45.04
41312;BME280;27061;41.648;24.568;2023-02-11T09:17:56;86756.75;;;0.85;44.81
41312;BME280;27061;41.648;24.568;2023-02-11T09:20:23;86753.94;;;1.02;43.58
41312;BME280;27061;41.648;24.568;2023-02-11T09:22:52;86748.66;;;1.08;44.60
41312;BME280;27061;41.648;24.568;2023-02-11T09:25:19;86756.50;;;1.18;45.30
41312;BME280;27061;41.648;24.568;2023-02-11T09:27:47;86750.81;;;1.32;45.94
41312;BME280;27061;41.648;24.568;2023-02-11T09:30:13;86757.16;;;1.38;45.74
41312;BME280;27061;41.648;24.568;2023-02-11T09:32:40;86748.75;;;1.52;46.55
41312;BME280;27061;41.648;24.568;2023-02-11T09:35:07;86748.25;;;1.58;45.99
41312;BME280;27061;41.648;24.568;2023-02-11T09:37:34;86740.44;;;1.70;46.37
41312;BME280;27061;41.648;24.568;2023-02-11T09:40:02;86734.59;;;1.79;45.75
41312;BME280;27061;41.648;24.568;2023-02-11T09:45:03;86740.63;;;1.98;43.40
41312;BME280;27061;41.648;24.568;2023-02-11T09:47:31;86730.72;;;2.08;42.09
41312;BME280;27061;41.648;24.568;2023-02-11T09:50:00;86728.22;;;2.16;43.84
41312;BME280;27061;41.648;24.568;2023-02-11T09:55:32;86730.13;;;2.36;41.46
41312;BME280;27061;41.648;24.568;2023-02-11T09:58:04;86724.72;;;2.38;30.77
41312;BME280;27061;41.648;24.568;2023-02-11T10:00:35;86718.06;;;2.43;36.91
41312;BME280;27061;41.648;24.568;2023-02-11T10:15:44;86716.69;;;2.68;38.18
41312;BME280;27061;41.648;24.568;2023-02-11T10:23:28;86696.94;;;2.95;40.28
41312;BME280;27061;41.648;24.568;2023-02-11T10:25:56;86696.41;;;3.01;39.00
41312;BME280;27061;41.648;24.568;2023-02-11T10:28:36;86696.66;;;3.11;38.36
41312;BME280;27061;41.648;24.568;2023-02-11T10:31:08;86696.59;;;3.09;37.74
41312;BME280;27061;41.648;24.568;2023-02-11T10:33:48;86690.06;;;3.20;36.68
41312;BME280;27061;41.648;24.568;2023-02-11T10:36:17;86674.97;;;3.19;28.16
41312;BME280;27061;41.648;24.568;2023-02-11T10:38:44;86678.41;;;3.19;33.33
41312;BME280;27061;41.648;24.568;2023-02-11T10:41:30;86670.94;;;3.22;35.05
41312;BME280;27061;41.648;24.568;2023-02-11T10:43:59;86670.50;;;3.31;37.83
41312;BME280;27061;41.648;24.568;2023-02-11T10:46:33;86666.59;;;3.39;39.47
41312;BME280;27061;41.648;24.568;2023-02-11T10:49:02;86667.44;;;3.45;39.19
41312;BME280;27061;41.648;24.568;2023-02-11T10:51:30;86667.69;;;3.55;40.37
41312;BME280;27061;41.648;24.568;2023-02-11T10:56:34;86661.28;;;3.75;32.67
41312;BME280;27061;41.648;24.568;2023-02-11T11:01:45;86653.22;;;3.81;36.53
41312;BME280;27061;41.648;24.568;2023-02-11T11:04:25;86648.00;;;3.93;36.05
41312;BME280;27061;41.648;24.568;2023-02-11T11:10:24;86642.72;;;4.01;34.97
41312;BME280;27061;41.648;24.568;2023-02-11T11:12:31;86639.41;;;4.07;33.12
41312;BME280;27061;41.648;24.568;2023-02-11T11:17:28;86637.03;;;4.25;35.47
41312;BME280;27061;41.648;24.568;2023-02-11T11:20:18;86637.84;;;4.29;38.31
41312;BME280;27061;41.648;24.568;2023-02-11T11:22:42;86623.53;;;4.33;38.06
41312;BME280;27061;41.648;24.568;2023-02-11T11:25:24;86618.06;;;4.33;38.53
41312;BME280;27061;41.648;24.568;2023-02-11T11:27:53;86625.03;;;4.40;40.19
41312;BME280;27061;41.648;24.568;2023-02-11T11:30:20;86612.78;;;4.43;38.73
41312;BME280;27061;41.648;24.568;2023-02-11T11:32:48;86621.91;;;4.54;38.03
41312;BME280;27061;41.648;24.568;2023-02-11T11:35:28;86624.75;;;4.60;37.49
41312;BME280;27061;41.648;24.568;2023-02-11T11:37:57;86615.25;;;4.65;36.06
41312;BME280;27061;41.648;24.568;2023-02-11T11:40:28;86620.06;;;4.64;33.05
41312;BME280;27061;41.648;24.568;2023-02-11T11:43:03;86616.16;;;4.41;27.89
41312;BME280;27061;41.648;24.568;2023-02-11T11:45:30;86613.63;;;4.52;31.75
41312;BME280;27061;41.648;24.568;2023-02-11T11:47:58;86605.50;;;4.58;29.16
41312;BME280;27061;41.648;24.568;2023-02-11T11:58:29;86602.66;;;4.52;30.25
41312;BME280;27061;41.648;24.568;2023-02-11T12:01:10;86593.06;;;4.53;34.44
41312;BME280;27061;41.648;24.568;2023-02-11T12:26:58;86578.41;;;4.74;31.85
41312;BME280;27061;41.648;24.568;2023-02-11T12:29:51;86580.31;;;4.65;31.98
41312;BME280;27061;41.648;24.568;2023-02-11T12:37:30;86578.81;;;4.60;28.31
41312;BME280;27061;41.648;24.568;2023-02-11T12:40:21;86582.41;;;4.69;27.31
41312;BME280;27061;41.648;24.568;2023-02-11T12:56:36;86571.84;;;4.53;29.39
41312;BME280;27061;41.648;24.568;2023-02-11T12:59:10;86569.28;;;4.63;25.06
41312;BME280;27061;41.648;24.568;2023-02-11T13:01:40;86573.94;;;4.55;22.40
41312;BME280;27061;41.648;24.568;2023-02-11T13:06:58;86566.41;;;4.57;22.49
41312;BME280;27061;41.648;24.568;2023-02-11T13:09:29;86566.97;;;4.50;22.50
41312;BME280;27061;41.648;24.568;2023-02-11T13:11:58;86564.13;;;4.46;26.72
41312;BME280;27061;41.648;24.568;2023-02-11T13:14:47;86558.75;;;4.50;28.40
41312;BME280;27061;41.648;24.568;2023-02-11T13:17:17;86565.00;;;4.54;28.39
41312;BME280;27061;41.648;24.568;2023-02-11T13:19:49;86564.47;;;4.62;23.11
41312;BME280;27061;41.648;24.568;2023-02-11T13:27:47;86556.41;;;4.72;23.37
41312;BME280;27061;41.648;24.568;2023-02-11T13:35:37;86555.16;;;4.79;26.08
41312;BME280;27061;41.648;24.568;2023-02-11T13:38:15;86548.50;;;4.90;24.26
41312;BME280;27061;41.648;24.568;2023-02-11T13:40:43;86556.69;;;4.86;27.94
41312;BME280;27061;41.648;24.568;2023-02-11T13:43:20;86559.38;;;4.84;27.80
41312;BME280;27061;41.648;24.568;2023-02-11T13:45:49;86553.19;;;4.84;25.54
41312;BME280;27061;41.648;24.568;2023-02-11T13:48:21;86549.84;;;4.89;25.16
41312;BME280;27061;41.648;24.568;2023-02-11T13:50:48;86552.53;;;4.85;25.28
41312;BME280;27061;41.648;24.568;2023-02-11T13:53:16;86557.22;;;4.78;28.49
41312;BME280;27061;41.648;24.568;2023-02-11T13:55:45;86552.47;;;4.81;29.51
41312;BME280;27061;41.648;24.568;2023-02-11T14:00:44;86553.78;;;4.78;28.81
41312;BME280;27061;41.648;24.568;2023-02-11T14:09:04;86556.22;;;4.62;31.29
41312;BME280;27061;41.648;24.568;2023-02-11T14:16:29;86550.13;;;4.29;32.01
41312;BME280;27061;41.648;24.568;2023-02-11T14:19:04;86548.06;;;4.30;32.41
41312;BME280;27061;41.648;24.568;2023-02-11T14:21:40;86540.69;;;4.02;32.66
41312;BME280;27061;41.648;24.568;2023-02-11T14:26:43;86543.88;;;3.93;31.01
41312;BME280;27061;41.648;24.568;2023-02-11T14:29:16;86543.56;;;3.77;30.48
41312;BME280;27061;41.648;24.568;2023-02-11T14:39:45;86548.22;;;3.40;33.86
41312;BME280;27061;41.648;24.568;2023-02-11T14:42:16;86541.03;;;3.25;34.80
41312;BME280;27061;41.648;24.568;2023-02-11T14:44:49;86538.16;;;3.19;33.73
41312;BME280;27061;41.648;24.568;2023-02-11T14:47:18;86539.81;;;3.02;34.14
41312;BME280;27061;41.648;24.568;2023-02-11T14:49:45;86532.06;;;2.92;35.11
41312;BME280;27061;41.648;24.568;2023-02-11T14:52:33;86530.31;;;2.75;36.34
41312;BME280;27061;41.648;24.568;2023-02-11T14:55:15;86542.53;;;2.72;36.31
41312;BME280;27061;41.648;24.568;2023-02-11T14:57:44;86532.09;;;2.65;34.66
41312;BME280;27061;41.648;24.568;2023-02-11T15:00:19;86537.81;;;2.49;35.48
41312;BME280;27061;41.648;24.568;2023-02-11T15:02:47;86531.88;;;2.56;35.33
41312;BME280;27061;41.648;24.568;2023-02-11T15:07:48;86532.25;;;2.45;34.63
41312;BME280;27061;41.648;24.568;2023-02-11T15:10:34;86527.66;;;2.26;33.76
41312;BME280;27061;41.648;24.568;2023-02-11T15:13:03;86531.03;;;2.24;33.98
41312;BME280;27061;41.648;24.568;2023-02-11T15:15:30;86534.19;;;2.14;34.97
41312;BME280;27061;41.648;24.568;2023-02-11T15:17:58;86535.66;;;2.17;33.37
41312;BME280;27061;41.648;24.568;2023-02-11T15:20:27;86534.09;;;2.10;33.45
41312;BME280;27061;41.648;24.568;2023-02-11T15:22:58;86530.81;;;1.90;33.09
41312;BME280;27061;41.648;24.568;2023-02-11T15:25:26;86532.03;;;1.85;33.48
41312;BME280;27061;41.648;24.568;2023-02-11T15:27:54;86534.47;;;1.75;34.88
41312;BME280;27061;41.648;24.568;2023-02-11T15:32:53;86528.69;;;1.63;34.00
41312;BME280;27061;41.648;24.568;2023-02-11T15:35:35;86528.63;;;1.37;36.84
41312;BME280;27061;41.648;24.568;2023-02-11T15:38:02;86534.78;;;1.37;36.59
41312;BME280;27061;41.648;24.568;2023-02-11T15:40:34;86520.53;;;1.17;36.60
41312;BME280;27061;41.648;24.568;2023-02-11T15:43:02;86530.16;;;1.20;37.70
41312;BME280;27061;41.648;24.568;2023-02-11T15:50:33;86526.59;;;0.92;37.03
41312;BME280;27061;41.648;24.568;2023-02-11T15:55:39;86529.00;;;0.82;34.36
41312;BME280;27061;41.648;24.568;2023-02-11T15:58:07;86528.81;;;0.76;34.06
41312;BME280;27061;41.648;24.568;2023-02-11T16:00:36;86521.78;;;0.68;34.30